createdAt,value
2019-04-04T00:02:17.064Z,52.22
2019-04-04T00:04:48.660Z,51.90
2019-04-04T00:07:19.291Z,51.81
2019-04-04T00:09:50.152Z,51.87
2019-04-04T00:12:20.686Z,51.90
2019-04-04T00:14:51.341Z,52.49
2019-04-04T00:17:23.217Z,52.43
2019-04-04T00:19:54.036Z,52.69
2019-04-04T00:22:24.740Z,52.29
2019-04-04T00:24:55.522Z,52.25
2019-04-04T00:27:26.151Z,52.78
2019-04-04T00:29:56.665Z,53.04
2019-04-04T00:32:27.221Z,53.01
2019-04-04T00:34:59.719Z,52.99
2019-04-04T00:37:29.985Z,53.20
2019-04-04T00:40:00.522Z,53.24
2019-04-04T00:42:31.020Z,53.13
2019-04-04T00:45:01.681Z,53.44
2019-04-04T00:47:32.657Z,53.44
2019-04-04T00:50:06.089Z,53.48
2019-04-04T00:52:36.221Z,53.48
2019-04-04T00:55:07.325Z,53.63
2019-04-04T00:57:37.966Z,54.07
2019-04-04T01:00:09.851Z,54.25
2019-04-04T01:02:40.490Z,54.82
2019-04-04T01:05:11.151Z,55.73
2019-04-04T01:07:41.680Z,56.24
2019-04-04T01:10:12.382Z,56.87
2019-04-04T01:12:43.116Z,57.45
2019-04-04T01:15:14.017Z,58.17
2019-04-04T01:17:44.654Z,58.02
2019-04-04T01:20:15.835Z,57.69
2019-04-04T01:22:46.330Z,57.54
2019-04-04T01:25:16.937Z,57.88
2019-04-04T01:27:47.571Z,58.00
2019-04-04T01:30:18.730Z,58.10
2019-04-04T01:32:49.307Z,58.26
2019-04-04T01:35:22.431Z,58.18
2019-04-04T01:37:52.354Z,58.05
2019-04-04T01:40:23.023Z,57.65
2019-04-04T01:42:53.546Z,57.03
2019-04-04T01:45:24.181Z,56.46
2019-04-04T01:47:54.584Z,56.06
2019-04-04T01:50:25.121Z,55.93
2019-04-04T01:52:59.014Z,55.76
2019-04-04T01:55:27.981Z,55.65
2019-04-04T01:57:58.496Z,55.08
2019-04-04T02:00:29.202Z,55.23
2019-04-04T02:02:59.721Z,55.19
2019-04-04T02:05:30.410Z,54.92
2019-04-04T02:08:01.562Z,54.67
2019-04-04T02:10:34.505Z,54.81
2019-04-04T02:13:04.519Z,54.92
2019-04-04T02:15:35.094Z,54.76
2019-04-04T02:18:05.830Z,54.77
2019-04-04T02:20:36.501Z,54.74
2019-04-04T02:23:07.066Z,54.53
2019-04-04T02:25:37.860Z,54.88
2019-04-04T02:28:08.891Z,55.29
2019-04-04T02:30:40.267Z,55.81
2019-04-04T02:33:10.914Z,56.35
2019-04-04T02:35:43.744Z,56.87
2019-04-04T02:38:14.093Z,56.88
2019-04-04T02:40:44.910Z,57.24
2019-04-04T02:43:15.417Z,57.57
2019-04-04T02:45:45.934Z,57.88
2019-04-04T02:48:16.692Z,58.42
2019-04-04T02:50:47.371Z,58.84
2019-04-04T02:53:20.329Z,59.11
2019-04-04T02:55:50.277Z,58.87
2019-04-04T02:58:20.785Z,58.67
2019-04-04T03:00:51.493Z,58.77
2019-04-04T03:03:22.013Z,58.71
2019-04-04T03:05:52.900Z,58.66
2019-04-04T03:08:23.614Z,58.66
2019-04-04T03:10:54.262Z,58.76
2019-04-04T03:13:24.865Z,58.93
2019-04-04T03:15:55.472Z,59.29
2019-04-04T03:18:26.077Z,59.25
2019-04-04T03:20:56.720Z,59.09
2019-04-04T03:23:27.255Z,59.37
2019-04-04T03:25:57.835Z,59.20
2019-04-04T03:28:31.309Z,59.13
2019-04-04T03:31:03.002Z,59.63
2019-04-04T03:33:33.344Z,59.62
2019-04-04T03:36:03.937Z,59.80
2019-04-04T03:38:34.415Z,60.08
2019-04-04T03:41:05.287Z,60.11
2019-04-04T03:43:35.760Z,59.92
2019-04-04T03:46:06.464Z,60.10
2019-04-04T03:48:37.131Z,60.11
2019-04-04T03:51:07.740Z,59.73
2019-04-04T03:53:41.154Z,59.93
2019-04-04T03:56:11.872Z,59.71
2019-04-04T03:58:42.602Z,59.87
2019-04-04T04:01:13.375Z,59.88
2019-04-04T04:03:44.112Z,59.88
2019-04-04T04:06:14.933Z,59.80
2019-04-04T04:08:45.511Z,59.84
2019-04-04T04:11:16.121Z,59.77
2019-04-04T04:13:49.910Z,60.05
2019-04-04T04:16:19.084Z,60.44
2019-04-04T04:18:54.039Z,60.76
2019-04-04T04:21:22.186Z,61.22
2019-04-04T04:23:56.341Z,61.64
2019-04-04T04:26:25.043Z,62.22
2019-04-04T04:28:56.029Z,62.58
2019-04-04T04:31:29.919Z,62.58
2019-04-04T04:34:01.894Z,62.86
2019-04-04T04:36:32.615Z,62.61
2019-04-04T04:39:03.907Z,62.41
2019-04-04T04:41:35.615Z,62.43
2019-04-04T04:44:07.021Z,62.51
2019-04-04T04:46:38.098Z,62.69
2019-04-04T04:49:09.354Z,62.44
2019-04-04T04:51:43.252Z,62.21
2019-04-04T04:54:13.188Z,62.16
2019-04-04T04:56:44.337Z,62.26
2019-04-04T04:59:15.633Z,61.90
2019-04-04T05:01:50.218Z,61.71
2019-04-04T05:04:19.780Z,61.63
2019-04-04T05:06:50.729Z,61.00
2019-04-04T05:09:21.720Z,60.83
2019-04-04T05:11:52.819Z,60.44
2019-04-04T05:14:23.806Z,59.69
2019-04-04T05:16:54.340Z,58.38
2019-04-04T05:19:25.017Z,58.07
2019-04-04T05:21:55.650Z,57.39
2019-04-04T05:24:26.403Z,57.00
2019-04-04T05:26:57.396Z,55.92
2019-04-04T05:29:27.953Z,54.97
2019-04-04T05:31:58.699Z,54.88
2019-04-04T05:34:30.434Z,54.83
2019-04-04T05:37:01.719Z,54.98
2019-04-04T05:39:32.678Z,55.28
2019-04-04T05:42:03.495Z,55.27
2019-04-04T05:44:34.386Z,55.84
2019-04-04T05:47:05.220Z,56.05
2019-04-04T05:49:36.166Z,55.57
2019-04-04T05:52:09.186Z,54.51
2019-04-04T05:54:40.246Z,53.19
2019-04-04T05:57:11.007Z,51.09
2019-04-04T05:59:42.530Z,49.83
2019-04-04T06:02:13.495Z,48.93
2019-04-04T06:04:44.245Z,47.44
2019-04-04T06:07:16.507Z,47.27
2019-04-04T06:09:47.507Z,46.37
2019-04-04T06:12:18.532Z,44.56
2019-04-04T06:14:49.096Z,43.87
2019-04-04T06:17:20.583Z,43.00
2019-04-04T06:19:55.199Z,42.58
2019-04-04T06:22:27.194Z,41.89
2019-04-04T06:24:59.335Z,41.37
2019-04-04T06:27:31.082Z,39.86
2019-04-04T06:30:04.634Z,38.41
2019-04-04T06:32:35.410Z,38.81
2019-04-04T06:35:06.575Z,40.99
2019-04-04T06:37:38.687Z,40.17
2019-04-04T06:40:10.313Z,39.83
2019-04-04T06:42:40.923Z,39.40
2019-04-04T06:45:15.150Z,39.27
2019-04-04T06:47:44.596Z,39.01
2019-04-04T06:50:17.188Z,38.94
2019-04-04T06:52:50.417Z,39.48
2019-04-04T06:55:22.432Z,38.96
2019-04-04T06:57:55.687Z,38.91
2019-04-04T07:00:26.464Z,39.42
2019-04-04T07:02:57.636Z,38.97
2019-04-04T07:05:28.526Z,38.10
2019-04-04T07:07:59.393Z,37.82
2019-04-04T07:10:30.334Z,38.07
2019-04-04T07:13:20.173Z,38.24
2019-04-04T07:15:46.314Z,38.02
2019-04-04T07:18:07.154Z,37.68
2019-04-04T07:20:38.318Z,37.67
2019-04-04T07:23:09.247Z,37.27
2019-04-04T07:25:40.291Z,37.01
2019-04-04T07:28:11.672Z,38.53
2019-04-04T07:30:42.597Z,37.54
2019-04-04T07:33:14.027Z,38.06
2019-04-04T07:35:44.763Z,38.48
2019-04-04T07:38:15.859Z,37.89
2019-04-04T07:40:47.196Z,37.12
2019-04-04T07:43:19.399Z,37.30
2019-04-04T07:45:51.029Z,37.36
2019-04-04T07:48:22.516Z,36.73
2019-04-04T07:50:53.469Z,35.99
2019-04-04T07:53:24.282Z,36.71
2019-04-04T07:55:55.140Z,37.09
2019-04-04T07:58:25.896Z,35.83
2019-04-04T08:00:56.980Z,34.99
2019-04-04T08:03:28.659Z,35.91
2019-04-04T08:05:59.340Z,35.04
2019-04-04T08:08:30.128Z,35.45
2019-04-04T08:11:00.851Z,35.56
2019-04-04T08:13:31.472Z,35.08
2019-04-04T08:16:02.166Z,36.40
2019-04-04T08:18:32.841Z,35.06
2019-04-04T08:21:05.637Z,34.53
2019-04-04T08:23:35.795Z,34.96
2019-04-04T08:26:06.405Z,34.88
2019-04-04T08:28:36.917Z,34.36
2019-04-04T08:31:09.823Z,33.95
2019-04-04T08:33:39.921Z,33.21
2019-04-04T08:36:10.557Z,34.18
2019-04-04T08:38:41.369Z,34.75
2019-04-04T08:41:12.156Z,34.54
2019-04-04T08:43:42.632Z,33.89
2019-04-04T08:46:13.291Z,33.52
2019-04-04T08:48:43.918Z,34.35
2019-04-04T08:51:14.733Z,32.62
2019-04-04T08:53:48.484Z,34.95
2019-04-04T08:56:19.255Z,33.76
2019-04-04T08:58:51.696Z,33.89
2019-04-04T09:01:22.703Z,33.54
2019-04-04T09:03:53.894Z,34.44
2019-04-04T09:06:24.485Z,33.71
2019-04-04T09:08:55.137Z,33.59
2019-04-04T09:11:25.920Z,33.40
2019-04-04T09:13:56.727Z,33.17
2019-04-04T09:16:29.125Z,33.59
2019-04-04T09:18:59.950Z,32.49
2019-04-04T09:21:30.502Z,33.63
2019-04-04T09:24:01.222Z,33.87
2019-04-04T09:26:32.410Z,32.77
2019-04-04T09:29:03.087Z,33.10
2019-04-04T09:31:33.740Z,33.31
2019-04-04T09:34:04.430Z,33.47
2019-04-04T09:36:35.317Z,33.54
2019-04-04T09:39:07.711Z,32.42
2019-04-04T09:41:39.042Z,34.14
2019-04-04T09:44:10.012Z,32.93
2019-04-04T09:46:41.076Z,32.66
2019-04-04T09:49:13.051Z,33.43
2019-04-04T09:51:44.016Z,33.02
2019-04-04T09:54:14.601Z,32.43
2019-04-04T09:56:45.123Z,32.85
2019-04-04T09:59:16.778Z,33.49
2019-04-04T10:01:47.811Z,33.39
2019-04-04T10:04:18.821Z,32.30
2019-04-04T10:06:59.264Z,32.39
2019-04-04T10:09:30.097Z,33.09
2019-04-04T10:12:01.339Z,33.37
2019-04-04T10:14:31.951Z,31.88
2019-04-04T10:17:02.573Z,32.95
2019-04-04T10:19:33.006Z,32.64
2019-04-04T10:22:03.640Z,31.26
2019-04-04T10:24:36.356Z,31.88
2019-04-04T10:27:07.151Z,32.18
2019-04-04T10:29:38.012Z,31.86
2019-04-04T10:32:08.871Z,31.88
2019-04-04T10:34:39.338Z,32.17
2019-04-04T10:37:10.388Z,31.43
2019-04-04T10:39:41.387Z,32.26
2019-04-04T10:42:12.472Z,30.74
2019-04-04T10:44:43.830Z,31.76
2019-04-04T10:47:15.199Z,30.91
2019-04-04T10:49:46.479Z,30.47
2019-04-04T10:52:22.147Z,30.74
2019-04-04T10:54:52.573Z,31.09
2019-04-04T10:57:23.174Z,30.73
2019-04-04T10:59:54.568Z,31.09
2019-04-04T11:02:25.528Z,31.03
2019-04-04T11:04:56.465Z,31.71
2019-04-04T11:07:27.129Z,33.44
2019-04-04T11:09:57.820Z,34.48
2019-04-04T11:12:28.395Z,33.76
2019-04-04T11:14:58.984Z,33.20
2019-04-04T11:17:29.486Z,33.18
2019-04-04T11:20:00.151Z,33.35
2019-04-04T11:22:30.920Z,33.10
2019-04-04T11:25:01.558Z,32.23
2019-04-04T11:27:32.143Z,33.25
2019-04-04T11:30:02.867Z,33.79
2019-04-04T11:32:33.424Z,33.39
2019-04-04T11:35:04.319Z,33.13
2019-04-04T11:37:36.585Z,33.58
2019-04-04T11:40:07.566Z,34.08
2019-04-04T11:42:38.160Z,33.47
2019-04-04T11:45:09.057Z,32.44
2019-04-04T11:47:39.809Z,32.42
2019-04-04T11:50:11.707Z,33.92
2019-04-04T11:52:42.290Z,32.16
2019-04-04T11:55:13.666Z,32.18
2019-04-04T11:57:44.123Z,33.09
2019-04-04T12:00:20.812Z,34.62
2019-04-04T12:02:51.215Z,33.26
2019-04-04T12:05:21.669Z,32.24
2019-04-04T12:07:52.146Z,32.37
2019-04-04T12:10:22.766Z,32.94
2019-04-04T12:12:53.291Z,33.49
2019-04-04T12:15:23.802Z,34.07
2019-04-04T12:17:54.416Z,33.57
2019-04-04T12:20:25.116Z,33.87
2019-04-04T12:22:55.728Z,33.92
2019-04-04T12:25:26.622Z,33.88
2019-04-04T12:27:57.202Z,32.86
2019-04-04T12:30:27.910Z,33.36
2019-04-04T12:32:58.484Z,33.04
2019-04-04T12:35:29.041Z,33.80
2019-04-04T12:37:59.730Z,33.67
2019-04-04T12:40:30.340Z,33.39
2019-04-04T12:43:00.850Z,33.15
2019-04-04T12:45:31.432Z,33.85
2019-04-04T12:48:02.112Z,33.17
2019-04-04T12:50:32.734Z,33.80
2019-04-04T12:53:03.731Z,32.17
2019-04-04T12:55:34.553Z,32.57
2019-04-04T12:58:05.292Z,33.50
2019-04-04T13:00:36.020Z,33.32
2019-04-04T13:03:06.794Z,33.18
2019-04-04T13:05:37.322Z,33.22
2019-04-04T13:08:08.313Z,33.80
2019-04-04T13:10:39.547Z,32.78
2019-04-04T13:13:10.013Z,32.50
2019-04-04T13:15:45.151Z,32.16
2019-04-04T13:18:15.676Z,31.56
2019-04-04T13:20:46.447Z,33.61
2019-04-04T13:23:17.161Z,31.90
2019-04-04T13:25:47.711Z,33.54
2019-04-04T13:28:18.385Z,32.96
2019-04-04T13:30:48.860Z,32.24
2019-04-04T13:33:22.495Z,32.29
2019-04-04T13:35:52.065Z,32.42
2019-04-04T13:38:22.656Z,34.41
2019-04-04T13:40:53.336Z,32.50
2019-04-04T13:43:24.131Z,33.19
2019-04-04T13:45:54.763Z,33.25
2019-04-04T13:48:25.452Z,33.84
2019-04-04T13:50:56.277Z,33.50
2019-04-04T13:53:27.374Z,32.22
2019-04-04T13:55:59.213Z,32.29
2019-04-04T13:58:30.163Z,32.70
2019-04-04T14:01:00.639Z,33.13
2019-04-04T14:03:31.225Z,33.16
2019-04-04T14:06:02.064Z,34.21
2019-04-04T14:08:32.763Z,32.68
2019-04-04T14:11:03.517Z,33.17
2019-04-04T14:13:34.206Z,33.80
2019-04-04T14:16:06.173Z,33.75
2019-04-04T14:18:44.778Z,32.79
2019-04-04T14:21:36.506Z,32.83
2019-04-04T14:24:13.967Z,33.75
2019-04-04T14:26:45.901Z,33.86
2019-04-04T14:29:33.530Z,31.89
2019-04-04T14:32:04.302Z,31.94
2019-04-04T14:34:35.389Z,32.65
2019-04-04T14:37:05.940Z,32.75
2019-04-04T14:39:36.741Z,32.26
2019-04-04T14:42:08.943Z,32.68
2019-04-04T14:44:41.356Z,33.24
2019-04-04T14:47:13.941Z,33.37
2019-04-04T14:49:46.264Z,32.82
2019-04-04T14:52:19.755Z,33.40
2019-04-04T14:54:53.132Z,34.04
2019-04-04T14:57:25.853Z,34.16
2019-04-04T14:59:56.910Z,34.24
2019-04-04T15:02:27.861Z,33.82
2019-04-04T15:04:58.608Z,34.05
2019-04-04T15:07:29.277Z,33.76
2019-04-04T15:10:00.315Z,33.58
2019-04-04T15:12:31.171Z,34.21
2019-04-04T15:15:01.937Z,33.99
2019-04-04T15:17:32.769Z,33.55
2019-04-04T15:20:03.672Z,34.08
2019-04-04T15:22:34.256Z,33.44
2019-04-04T15:25:05.141Z,33.89
2019-04-04T15:27:35.803Z,34.16
2019-04-04T15:30:07.397Z,34.53
2019-04-04T15:32:38.197Z,34.46
2019-04-04T15:35:09.432Z,34.49
2019-04-04T15:37:39.982Z,33.72
2019-04-04T15:40:11.030Z,34.61
2019-04-04T15:42:43.410Z,34.24
2019-04-04T15:45:15.590Z,34.78
2019-04-04T15:47:46.352Z,34.35
2019-04-04T15:50:17.192Z,34.13
2019-04-04T15:52:47.874Z,34.17
2019-04-04T15:55:19.042Z,34.63
2019-04-04T15:57:50.914Z,34.58
2019-04-04T16:00:22.001Z,34.05
2019-04-04T16:02:52.678Z,34.37
2019-04-04T16:05:23.391Z,34.79
2019-04-04T16:07:54.180Z,35.00
2019-04-04T16:10:24.924Z,34.36
2019-04-04T16:12:55.701Z,34.67
2019-04-04T16:15:26.479Z,35.11
2019-04-04T16:17:57.277Z,34.59
2019-04-04T16:20:27.961Z,35.18
2019-04-04T16:22:58.615Z,34.66
2019-04-04T16:25:29.409Z,34.29
2019-04-04T16:28:00.102Z,34.67
2019-04-04T16:30:30.751Z,34.61
2019-04-04T16:33:01.572Z,35.09
2019-04-04T16:35:32.262Z,35.31
2019-04-04T16:38:04.514Z,36.89
2019-04-04T16:40:35.249Z,33.97
2019-04-04T16:43:05.906Z,33.85
2019-04-04T16:45:36.644Z,33.91
2019-04-04T16:48:07.455Z,34.57
2019-04-04T16:50:38.807Z,33.60
2019-04-04T16:53:09.806Z,33.27
2019-04-04T16:55:40.597Z,34.06
2019-04-04T16:58:11.384Z,33.58
2019-04-04T17:00:42.131Z,34.84
2019-04-04T17:03:12.755Z,35.03
2019-04-04T17:05:43.667Z,36.01
2019-04-04T17:08:14.366Z,36.62
2019-04-04T17:10:45.284Z,36.98
2019-04-04T17:13:15.852Z,36.48
2019-04-04T17:15:47.497Z,37.32
2019-04-04T17:18:18.331Z,37.50
2019-04-04T17:20:49.570Z,39.01
2019-04-04T17:23:20.507Z,39.20
2019-04-04T17:25:52.625Z,40.19
2019-04-04T17:28:23.834Z,40.01
2019-04-04T17:30:57.891Z,39.92
2019-04-04T17:33:30.983Z,40.84
2019-04-04T17:36:02.926Z,40.69
2019-04-04T17:38:33.586Z,40.89
2019-04-04T17:41:08.068Z,40.81
2019-04-04T17:43:39.128Z,41.33
2019-04-04T17:46:13.677Z,40.73
2019-04-04T17:48:46.030Z,41.52
2019-04-04T17:51:18.276Z,40.96
2019-04-04T17:53:49.170Z,41.58
2019-04-04T17:56:22.463Z,41.57
2019-04-04T17:58:53.449Z,42.15
2019-04-04T18:01:30.252Z,42.71
2019-04-04T18:04:00.986Z,43.21
2019-04-04T18:06:40.509Z,43.46
2019-04-04T18:09:14.012Z,43.32
2019-04-04T18:11:48.788Z,42.79
2019-04-04T18:14:21.906Z,43.07
2019-04-04T18:16:52.576Z,42.82
2019-04-04T18:19:25.481Z,42.73
2019-04-04T18:21:56.315Z,41.80
2019-04-04T18:24:28.603Z,42.07
2019-04-04T18:27:00.573Z,41.67
2019-04-04T18:29:36.615Z,41.74
2019-04-04T18:32:07.629Z,41.14
2019-04-04T18:34:39.459Z,41.76
2019-04-04T18:37:14.042Z,42.44
2019-04-04T18:39:53.338Z,42.96
2019-04-04T18:42:29.833Z,42.71
2019-04-04T18:45:06.321Z,42.77
2019-04-04T18:47:40.721Z,43.08
2019-04-04T18:50:12.899Z,43.53
2019-04-04T18:52:54.592Z,44.47
2019-04-04T18:55:34.030Z,44.26
2019-04-04T18:58:05.931Z,44.18
2019-04-04T19:00:38.331Z,44.12
2019-04-04T19:03:15.697Z,44.23
2019-04-04T19:05:46.568Z,44.08
2019-04-04T19:08:22.392Z,44.07
2019-04-04T19:11:04.814Z,44.09
2019-04-04T19:13:44.464Z,44.50
2019-04-04T19:16:14.270Z,45.04
2019-04-04T19:18:52.932Z,44.85
2019-04-04T19:21:30.663Z,44.78
2019-04-04T19:24:11.135Z,44.88
2019-04-04T19:26:46.362Z,45.11
2019-04-04T19:29:18.358Z,45.00
2019-04-04T19:31:54.629Z,45.16
2019-04-04T19:34:26.985Z,45.26
2019-04-04T19:37:02.578Z,45.96
2019-04-04T19:39:35.760Z,46.07
2019-04-04T19:42:06.836Z,45.30
2019-04-04T19:44:52.419Z,44.54
2019-04-04T19:47:12.569Z,44.82
2019-04-04T19:49:44.727Z,44.45
2019-04-04T19:52:19.189Z,44.97
2019-04-04T19:54:50.214Z,44.57
2019-04-04T19:57:25.318Z,44.70
2019-04-04T19:59:57.499Z,44.95
2019-04-04T20:02:34.131Z,44.60
2019-04-04T20:05:06.678Z,44.73
2019-04-04T20:07:39.120Z,44.00
2019-04-04T20:10:13.459Z,44.02
2019-04-04T20:12:47.306Z,44.31
2019-04-04T20:15:19.083Z,42.73
2019-04-04T20:17:51.413Z,43.44
2019-04-04T20:20:23.335Z,43.84
2019-04-04T20:22:54.226Z,43.76
2019-04-04T20:25:25.133Z,42.06
2019-04-04T20:27:56.194Z,42.81
2019-04-04T20:30:48.335Z,42.37
2019-04-04T20:33:20.853Z,42.30
2019-04-04T20:35:52.564Z,42.62
2019-04-04T20:38:23.657Z,42.57
2019-04-04T20:40:54.962Z,42.06
2019-04-04T20:43:25.541Z,42.17
2019-04-04T20:45:56.168Z,42.03
2019-04-04T20:48:27.133Z,42.99
2019-04-04T20:50:57.836Z,42.78
2019-04-04T20:53:29.216Z,43.00
2019-04-04T20:55:59.819Z,43.67
2019-04-04T20:58:30.246Z,44.77
2019-04-04T21:01:00.867Z,44.57
2019-04-04T21:03:31.468Z,45.06
2019-04-04T21:06:02.144Z,45.54
2019-04-04T21:08:32.965Z,45.98
2019-04-04T21:11:03.601Z,45.18
2019-04-04T21:13:34.151Z,44.86
2019-04-04T21:16:04.834Z,44.87
2019-04-04T21:18:35.364Z,45.08
2019-04-04T21:21:06.232Z,45.68
2019-04-04T21:23:36.779Z,46.27
2019-04-04T21:26:07.550Z,46.21
2019-04-04T21:28:38.233Z,46.61
2019-04-04T21:31:08.691Z,46.85
2019-04-04T21:33:39.287Z,47.48
2019-04-04T21:36:09.989Z,47.47
2019-04-04T21:38:40.536Z,47.14
2019-04-04T21:41:11.131Z,46.24
2019-04-04T21:43:42.697Z,46.50
2019-04-04T21:46:13.313Z,46.74
2019-04-04T21:48:43.781Z,46.91
2019-04-04T21:51:14.241Z,47.14
2019-04-04T21:53:45.280Z,47.39
2019-04-04T21:56:16.010Z,47.07
2019-04-04T21:58:46.989Z,47.15
2019-04-04T22:01:17.902Z,47.90
2019-04-04T22:03:48.502Z,48.68
2019-04-04T22:06:19.196Z,47.97
2019-04-04T22:08:49.786Z,48.72
2019-04-04T22:11:20.400Z,48.98
2019-04-04T22:13:51.089Z,49.08
2019-04-04T22:16:21.961Z,49.26
2019-04-04T22:18:52.505Z,49.10
2019-04-04T22:21:23.280Z,49.39
2019-04-04T22:23:54.082Z,49.04
2019-04-04T22:26:24.611Z,48.18
2019-04-04T22:28:55.282Z,47.48
2019-04-04T22:31:25.911Z,47.54
2019-04-04T22:33:56.431Z,47.18
2019-04-04T22:36:27.027Z,47.37
2019-04-04T22:38:57.621Z,47.19
2019-04-04T22:41:28.252Z,46.98
2019-04-04T22:44:03.770Z,47.08
2019-04-04T22:46:31.241Z,46.69
2019-04-04T22:49:01.893Z,46.32
2019-04-04T22:51:32.415Z,45.99
2019-04-04T22:54:03.175Z,45.95
2019-04-04T22:56:33.791Z,45.87
2019-04-04T22:59:04.384Z,45.96
2019-04-04T23:01:34.850Z,46.34
2019-04-04T23:04:05.487Z,46.27
2019-04-04T23:06:35.995Z,45.75
2019-04-04T23:09:08.745Z,45.86
2019-04-04T23:11:39.504Z,46.05
2019-04-04T23:14:10.042Z,46.23
2019-04-04T23:16:40.710Z,46.24
2019-04-04T23:19:11.492Z,46.32
2019-04-04T23:21:42.201Z,46.15
2019-04-04T23:24:12.883Z,46.10
2019-04-04T23:26:43.486Z,46.15
2019-04-04T23:29:14.082Z,46.04
2019-04-04T23:31:44.643Z,46.15
2019-04-04T23:34:15.171Z,45.84
2019-04-04T23:36:45.681Z,45.72
2019-04-04T23:39:16.206Z,45.26
2019-04-04T23:41:46.781Z,45.24
2019-04-04T23:44:17.586Z,45.50
2019-04-04T23:46:48.205Z,45.44
2019-04-04T23:49:18.670Z,45.22
2019-04-04T23:51:49.352Z,45.27
2019-04-04T23:54:20.191Z,45.09
2019-04-04T23:56:50.662Z,45.15
2019-04-04T23:59:21.291Z,44.98
